Mattapoisett, MA (02739)

5:03 AM EST on November 26, 2014 (GMT -0500)
Aucoot Cove | Change Station
CLOSE
Current Station
Personal Weather Station
Location: Marion, MA
Elevation: 30 ft
Nearby Weather Stations
Active Advisory: Wind Advisory

Elev 30 ft 41.68 °N, 70.76 °W | Updated 9 minutes ago

Overcast
Overcast
46.8 °F
Feels Like 47 °F
N
0.0
Wind Variable Wind from West

Today
High -- | Low -- °F
--% Chance of Precip.
Yesterday
High -- | Low -- °F
Precip. -- in
6:45 AM 4:15 PM
Waxing Crescent, 18% visible
Pressure 30.16 in
Visibility 10.0 miles
Clouds Overcast 11000 ft
Windchill 47 °F
Dew Point 32 °F
Humidity 56%
Rainfall 0.00 in
Snow Depth Not available.
UV 0 out of 12
Pollen .10 out of 12
Air Quality Not available.
Flu Activity Not available.
METAR KEWB 260953Z AUTO 36005KT 10SM OVC110 08/M02 A3016 RMK AO2 SLP212 T00831017

More Conditions Fewer Conditions

Pressure 30.16 in
Visibility 10.0 miles
Clouds Overcast 11000 ft
Windchill 47 °F
Dew Point 32 °F
Humidity 56%
Rainfall 0.00 in
Snow Depth Not available.
UV 0 out of 12
Pollen .10 out of 12
Air Quality Not available.
Flu Activity Not available.
METAR KEWB 260953Z AUTO 36005KT 10SM OVC110 08/M02 A3016 RMK AO2 SLP212 T00831017

More Conditions Fewer Conditions

10-Day Weather Forecast

Almanac

Astronomy

Nov. 26, 2014 Rise Set
Actual Time
Civil Twilight
Nautical Twilight
Astronomical Twilight
Moon
Length of Visible Light
Length of Day
Tomorrow will be .
, % of the Moon is Illuminated

Today's Extremes

State Highs State Lows

Community

WunderPhotos

Upload Photos

1,773,704 photos uploaded!

WunderBlogs® & News

Nearby

Air Quality

  Air Quality AQ Index Pollutant
Not available.

Snow Depth

Station Depth Elevation

Earthquake Activity

City Distance Mag. Time & Date
Minimum magnitude displayed is 2.5.

Coastal Water Temperatures

Place Temperature

Nearby Weather Stations